Time;durP1;ratioP1;P1;durP2;ratioP2;P2;SDS_P1;SDS_P2;PMS_P1;PMS_P2;Temp;Humidity;BMP_temperature;BMP_pressure;BME280_temperature;BME280_humidity;BME280_pressure;Samples;Min_cycle;Max_cycle;Signal;HPM_P1;HPM_P2
2022/03/30 00:01:51;;;;;;;12.97;4.80;;;22.20;90.10;;;;;;5055555;28;20322;-74
2022/03/30 00:04:19;;;;;;;16.50;4.47;;;22.60;90.00;;;;;;5050319;28;20172;-74
2022/03/30 00:06:46;;;;;;;12.13;3.60;;;22.70;88.50;;;;;;5051797;28;20224;-77
2022/03/30 00:09:13;;;;;;;9.73;2.90;;;22.50;89.30;;;;;;5051329;28;20176;-76
2022/03/30 00:11:41;;;;;;;16.23;3.97;;;22.30;89.10;;;;;;5052300;28;20206;-77
2022/03/30 00:14:08;;;;;;;14.33;3.47;;;22.20;89.20;;;;;;5052627;28;20285;-80
2022/03/30 00:16:35;;;;;;;12.00;3.03;;;22.30;88.10;;;;;;5053262;28;20216;-75
2022/03/30 00:19:04;;;;;;;12.83;3.20;;;22.50;88.10;;;;;;5053960;28;20176;-76
2022/03/30 00:21:31;;;;;;;14.30;3.80;;;22.80;87.30;;;;;;5055240;28;20241;-77
2022/03/30 00:23:58;;;;;;;16.87;3.60;;;22.80;88.10;;;;;;5053736;28;20180;-76
2022/03/30 00:26:26;;;;;;;9.77;3.20;;;23.00;87.30;;;;;;5054801;28;20485;-78
2022/03/30 00:28:53;;;;;;;12.27;3.00;;;23.30;87.20;;;;;;5049138;28;20658;-78
2022/03/30 00:31:21;;;;;;;14.70;3.33;;;23.30;86.90;;;;;;5053138;28;20292;-77
2022/03/30 00:33:50;;;;;;;9.73;2.93;;;23.10;86.60;;;;;;5054868;28;20226;-77
2022/03/30 00:36:18;;;;;;;7.67;2.53;;;22.80;85.80;;;;;;5054354;28;20175;-76
2022/03/30 00:38:46;;;;;;;8.33;2.80;;;22.80;86.70;;;;;;5061739;28;20557;-75
2022/03/30 00:41:13;;;;;;;12.30;2.77;;;22.70;86.70;;;;;;5074581;28;20183;-78
2022/03/30 00:43:40;;;;;;;13.07;3.10;;;22.50;87.30;;;;;;5074541;28;20179;-74
2022/03/30 00:46:13;;;;;;;17.33;3.00;;;22.40;88.40;;;;;;5072242;28;20164;-77
2022/03/30 00:48:42;;;;;;;11.00;3.07;;;22.40;89.20;;;;;;5054343;28;20634;-77
2022/03/30 00:51:10;;;;;;;11.27;3.03;;;22.50;89.40;;;;;;5054270;28;20224;-75
2022/03/30 00:53:37;;;;;;;15.93;3.77;;;22.80;88.00;;;;;;5054107;28;20259;-74
2022/03/30 00:56:07;;;;;;;12.43;3.17;;;23.30;87.60;;;;;;5054448;28;20199;-78
2022/03/30 00:58:35;;;;;;;7.40;3.07;;;23.50;85.90;;;;;;5051409;28;20191;-78
2022/03/30 01:01:02;;;;;;;9.97;3.00;;;23.60;83.70;;;;;;5046914;28;20222;-76
2022/03/30 01:03:30;;;;;;;12.87;2.90;;;23.50;83.40;;;;;;5040563;28;20225;-78
2022/03/30 01:05:57;;;;;;;10.47;2.70;;;23.50;83.80;;;;;;5054118;28;20191;-80
2022/03/30 01:08:24;;;;;;;12.83;2.80;;;23.40;84.60;;;;;;5054278;28;20176;-78
2022/03/30 01:10:53;;;;;;;9.50;2.63;;;23.40;84.20;;;;;;5053803;28;20292;-78
2022/03/30 01:13:21;;;;;;;8.17;2.67;;;23.30;84.20;;;;;;5053082;28;20183;-77
2022/03/30 01:15:49;;;;;;;8.50;2.80;;;23.60;83.50;;;;;;5050009;28;20666;-76
2022/03/30 01:18:16;;;;;;;9.10;2.90;;;23.80;83.60;;;;;;5053981;28;20183;-73
2022/03/30 01:20:49;;;;;;;10.07;2.73;;;23.90;82.70;;;;;;5053775;28;20175;-80
2022/03/30 01:23:17;;;;;;;12.47;2.50;;;24.10;82.30;;;;;;5052835;28;20190;-74
2022/03/30 01:25:45;;;;;;;7.43;2.30;;;24.10;80.40;;;;;;5053838;28;20179;-77
2022/03/30 01:28:12;;;;;;;7.43;2.40;;;24.20;80.80;;;;;;5050288;28;20184;-78
2022/03/30 01:33:26;;;;;;;9.90;3.23;;;24.00;83.60;;;;;;5051384;28;20190;-75
2022/03/30 01:35:54;;;;;;;7.23;3.03;;;23.30;87.40;;;;;;5050039;28;20179;-71
2022/03/30 01:38:21;;;;;;;9.17;2.90;;;22.80;88.50;;;;;;5052849;28;20234;-74
2022/03/30 01:40:48;;;;;;;13.10;3.67;;;22.30;89.80;;;;;;5053051;28;20168;-74
2022/03/30 01:43:16;;;;;;;7.60;2.87;;;22.00;90.90;;;;;;5050624;28;20608;-74
2022/03/30 01:45:43;;;;;;;10.70;3.37;;;21.80;90.70;;;;;;5052284;28;20188;-74
2022/03/30 01:48:11;;;;;;;10.43;3.60;;;21.80;91.20;;;;;;5052298;28;20542;-74
2022/03/30 01:50:38;;;;;;;13.40;3.90;;;21.90;91.70;;;;;;5052948;28;20210;-72
2022/03/30 01:53:05;;;;;;;7.57;3.40;;;22.00;91.70;;;;;;5047669;28;20207;-71
2022/03/30 01:55:33;;;;;;;6.83;3.23;;;21.80;90.50;;;;;;5053106;28;20195;-71
2022/03/30 01:58:01;;;;;;;5.67;3.60;;;21.80;91.10;;;;;;5053165;28;20634;-72
2022/03/30 02:00:29;;;;;;;10.53;4.43;;;21.90;91.30;;;;;;5053376;28;20708;-74
2022/03/30 02:02:56;;;;;;;8.00;4.27;;;22.00;91.00;;;;;;5045896;28;20179;-72
2022/03/30 02:05:23;;;;;;;12.47;4.27;;;22.00;90.70;;;;;;5051783;28;20188;-72
2022/03/30 02:07:51;;;;;;;8.97;3.30;;;22.10;90.00;;;;;;5052465;28;20293;-74
2022/03/30 02:10:18;;;;;;;4.97;2.53;;;22.10;88.20;;;;;;5051284;28;20196;-73
2022/03/30 02:12:46;;;;;;;5.90;2.90;;;22.50;87.30;;;;;;5051864;28;20241;-75
2022/03/30 02:15:14;;;;;;;6.93;2.30;;;23.10;86.20;;;;;;5051503;28;20263;-78
2022/03/30 02:17:41;;;;;;;4.80;2.50;;;23.40;83.80;;;;;;5052759;28;20171;-76
2022/03/30 02:20:11;;;;;;;5.57;2.43;;;23.40;82.50;;;;;;5052367;28;20176;-75
2022/03/30 02:22:39;;;;;;;9.20;2.40;;;23.30;83.10;;;;;;5049565;28;20187;-78
2022/03/30 02:25:07;;;;;;;6.90;2.70;;;23.40;84.40;;;;;;5051185;28;20547;-75
2022/03/30 02:27:34;;;;;;;11.53;3.13;;;23.50;84.40;;;;;;5051264;28;20673;-78
2022/03/30 02:30:02;;;;;;;7.40;2.10;;;23.50;83.40;;;;;;5052388;28;20196;-75
2022/03/30 02:32:30;;;;;;;6.27;2.33;;;23.80;81.00;;;;;;5052711;28;20175;-74
2022/03/30 02:34:57;;;;;;;5.77;2.20;;;24.20;81.50;;;;;;5050270;28;20188;-75
2022/03/30 02:37:24;;;;;;;8.93;2.70;;;24.50;78.60;;;;;;5050413;28;20321;-74
2022/03/30 02:39:52;;;;;;;6.87;1.93;;;24.70;79.50;;;;;;5049267;28;20198;-73
2022/03/30 02:42:19;;;;;;;6.53;2.50;;;24.70;78.00;;;;;;5050718;28;20658;-78
2022/03/30 02:44:46;;;;;;;8.70;2.57;;;24.30;78.20;;;;;;5049561;28;20547;-81
2022/03/30 02:47:14;;;;;;;8.90;3.37;;;23.80;80.00;;;;;;5050365;28;20246;-76
2022/03/30 02:49:42;;;;;;;6.33;2.93;;;23.60;80.60;;;;;;5051433;28;20682;-79
2022/03/30 02:52:09;;;;;;;9.47;3.47;;;23.50;82.10;;;;;;5047010;28;20264;-79
2022/03/30 02:54:37;;;;;;;8.47;3.40;;;23.50;81.10;;;;;;5045788;28;20200;-84
2022/03/30 02:57:04;;;;;;;11.27;2.93;;;23.70;82.20;;;;;;5050378;28;20213;-80
2022/03/30 02:59:32;;;;;;;10.90;3.03;;;23.70;82.20;;;;;;5048216;28;20565;-78
2022/03/30 03:01:59;;;;;;;11.37;2.90;;;23.60;81.40;;;;;;5050145;28;20665;-79
2022/03/30 03:04:28;;;;;;;8.87;3.03;;;23.60;80.40;;;;;;5050294;28;20188;-80
2022/03/30 03:06:55;;;;;;;9.57;3.47;;;23.70;79.90;;;;;;5048950;28;20555;-76
2022/03/30 03:09:22;;;;;;;6.17;2.70;;;23.70;79.30;;;;;;5051409;28;20198;-76
2022/03/30 03:11:50;;;;;;;7.47;2.53;;;23.60;78.70;;;;;;5051353;28;20645;-81
2022/03/30 03:14:17;;;;;;;5.67;2.17;;;23.60;78.90;;;;;;5046345;28;20180;-75
2022/03/30 03:16:45;;;;;;;5.03;2.40;;;23.60;78.20;;;;;;5049496;28;20190;-78
2022/03/30 03:19:12;;;;;;;6.57;2.37;;;23.60;78.10;;;;;;5048571;28;20176;-77
2022/03/30 03:21:40;;;;;;;6.97;2.60;;;23.60;77.20;;;;;;5051096;28;20188;-79
2022/03/30 03:24:07;;;;;;;6.33;1.97;;;23.70;77.40;;;;;;5049776;28;20230;-78
2022/03/30 03:26:35;;;;;;;5.67;2.27;;;23.80;77.80;;;;;;5050441;28;20665;-75
2022/03/30 03:29:02;;;;;;;8.60;2.43;;;23.90;76.50;;;;;;5049061;28;20257;-76
2022/03/30 03:31:29;;;;;;;4.43;1.90;;;24.10;76.10;;;;;;5050875;28;20223;-78
2022/03/30 03:33:57;;;;;;;5.83;2.20;;;24.30;75.10;;;;;;5050442;28;20675;-83
2022/03/30 03:36:25;;;;;;;6.13;2.10;;;24.70;73.90;;;;;;5049332;28;20192;-75
2022/03/30 03:38:53;;;;;;;6.90;1.90;;;24.90;72.10;;;;;;5049438;28;20199;-74
2022/03/30 03:41:21;;;;;;;5.47;2.53;;;25.30;70.90;;;;;;5051088;28;20184;-75
2022/03/30 03:43:48;;;;;;;6.17;1.70;;;25.60;71.40;;;;;;5050759;28;20187;-73
2022/03/30 03:46:15;;;;;;;4.10;1.80;;;26.10;68.90;;;;;;5050571;28;20709;-73
2022/03/30 03:48:43;;;;;;;8.67;1.97;;;26.40;67.50;;;;;;5051817;28;20322;-74
2022/03/30 03:51:10;;;;;;;5.23;1.93;;;26.30;66.80;;;;;;5054340;28;20222;-77
2022/03/30 03:53:38;;;;;;;5.73;1.70;;;26.00;67.40;;;;;;5053061;28;20650;-74
2022/03/30 03:56:06;;;;;;;7.60;2.20;;;26.60;67.10;;;;;;5053747;28;20317;-73
2022/03/30 03:58:33;;;;;;;5.47;2.13;;;26.50;66.60;;;;;;5052635;28;20198;-74
2022/03/30 04:01:01;;;;;;;2.77;1.87;;;26.30;67.90;;;;;;5050588;28;20306;-75
2022/03/30 04:03:28;;;;;;;3.83;1.80;;;25.80;68.60;;;;;;5052267;28;20180;-75
2022/03/30 04:05:56;;;;;;;6.30;1.87;;;25.30;70.00;;;;;;5051410;28;20188;-74
2022/03/30 04:08:23;;;;;;;7.13;1.70;;;24.90;71.30;;;;;;5052774;28;20279;-78
2022/03/30 04:10:51;;;;;;;5.07;1.80;;;24.70;71.80;;;;;;5050224;28;20254;-75
2022/03/30 04:13:18;;;;;;;7.50;3.07;;;24.80;72.10;;;;;;5053609;28;20212;-75
2022/03/30 04:15:48;;;;;;;4.30;2.10;;;24.60;71.90;;;;;;5052409;28;20245;-74
2022/03/30 04:18:16;;;;;;;3.77;1.83;;;24.70;73.20;;;;;;5050893;28;20263;-77
2022/03/30 04:20:44;;;;;;;4.67;2.03;;;24.70;72.10;;;;;;5051810;28;20600;-75
2022/03/30 04:23:12;;;;;;;5.80;2.90;;;24.50;72.70;;;;;;5048150;28;20253;-74
2022/03/30 04:25:39;;;;;;;8.13;2.87;;;24.30;73.30;;;;;;5052739;28;20647;-79
2022/03/30 04:28:07;;;;;;;6.27;2.10;;;24.30;73.80;;;;;;5049164;28;20190;-77
2022/03/30 04:30:34;;;;;;;4.40;2.13;;;24.30;74.00;;;;;;5052122;28;20212;-76
2022/03/30 04:33:01;;;;;;;3.87;2.00;;;24.40;73.60;;;;;;5053137;28;20188;-73
2022/03/30 04:35:29;;;;;;;3.80;1.60;;;24.60;73.40;;;;;;5053082;28;20238;-77
2022/03/30 04:37:57;;;;;;;3.67;1.60;;;24.60;72.10;;;;;;5052797;28;20191;-79
2022/03/30 04:40:26;;;;;;;6.20;1.57;;;24.60;72.10;;;;;;5050305;28;20559;-74
2022/03/30 04:42:54;;;;;;;2.03;1.37;;;24.70;72.30;;;;;;5050973;28;20669;-74
2022/03/30 04:45:22;;;;;;;6.13;1.80;;;24.60;72.30;;;;;;5046954;28;20718;-73
2022/03/30 04:47:53;;;;;;;5.37;1.87;;;24.60;72.40;;;;;;5052599;28;20227;-74
2022/03/30 04:50:21;;;;;;;3.90;1.90;;;24.70;72.20;;;;;;5052502;28;20227;-74
2022/03/30 04:52:49;;;;;;;5.33;1.80;;;24.60;72.10;;;;;;5049014;28;20172;-74
2022/03/30 04:55:16;;;;;;;6.00;1.73;;;24.40;73.10;;;;;;5051896;28;20184;-75
2022/03/30 04:57:44;;;;;;;8.63;2.33;;;24.30;73.70;;;;;;5051730;28;20455;-74
2022/03/30 05:00:12;;;;;;;7.43;1.80;;;24.30;74.80;;;;;;5053787;28;20180;-74
2022/03/30 05:02:40;;;;;;;10.03;2.67;;;24.20;74.60;;;;;;5054090;28;20180;-76
2022/03/30 05:05:09;;;;;;;4.43;1.63;;;23.90;75.40;;;;;;5051532;28;20180;-80
2022/03/30 05:07:40;;;;;;;7.47;2.07;;;23.60;76.40;;;;;;5048820;28;20700;-72
2022/03/30 05:10:11;;;;;;;6.77;1.93;;;23.60;77.30;;;;;;5046075;28;20315;-73
2022/03/30 05:12:39;;;;;;;5.93;1.77;;;23.80;77.30;;;;;;5050581;28;20253;-73
2022/03/30 05:15:09;;;;;;;6.40;1.40;;;23.80;76.50;;;;;;5049835;28;20188;-74
2022/03/30 05:17:39;;;;;;;5.57;2.10;;;23.80;75.70;;;;;;5052127;28;20201;-75
2022/03/30 05:20:07;;;;;;;6.20;2.27;;;23.80;76.50;;;;;;5046373;28;20176;-74
2022/03/30 05:22:35;;;;;;;6.97;2.00;;;24.00;75.40;;;;;;5051775;28;20222;-75
2022/03/30 05:25:03;;;;;;;9.57;2.20;;;24.00;75.20;;;;;;5051060;28;20298;-73
2022/03/30 05:27:30;;;;;;;7.93;1.93;;;23.90;75.90;;;;;;5052851;28;20249;-75
2022/03/30 05:29:58;;;;;;;8.03;2.07;;;23.70;76.70;;;;;;5049330;28;20746;-74
2022/03/30 05:32:25;;;;;;;5.00;2.40;;;23.50;76.90;;;;;;5048573;28;20207;-77
2022/03/30 05:34:53;;;;;;;9.03;2.53;;;23.20;78.20;;;;;;5049914;28;20181;-75
2022/03/30 05:37:21;;;;;;;8.03;2.27;;;23.20;79.40;;;;;;5049776;28;20187;-76
2022/03/30 05:39:48;;;;;;;6.23;2.70;;;23.10;79.20;;;;;;5050988;28;20184;-79
2022/03/30 05:42:16;;;;;;;11.30;3.37;;;23.00;79.50;;;;;;5052948;28;20188;-75
2022/03/30 05:44:43;;;;;;;8.97;2.77;;;23.00;80.00;;;;;;5055303;28;20172;-78
2022/03/30 05:47:11;;;;;;;7.53;2.70;;;23.10;79.40;;;;;;5052034;28;20638;-74
2022/03/30 05:49:39;;;;;;;8.20;2.50;;;23.20;79.40;;;;;;5051567;28;20210;-76
2022/03/30 05:52:07;;;;;;;10.80;2.40;;;23.00;79.90;;;;;;5037902;28;20188;-84
2022/03/30 05:54:35;;;;;;;6.87;2.43;;;22.90;80.30;;;;;;5050827;28;20203;-76
2022/03/30 05:57:05;;;;;;;8.57;2.60;;;22.80;80.30;;;;;;5052646;28;20179;-80
2022/03/30 05:59:38;;;;;;;5.27;1.90;;;22.80;81.20;;;;;;5052370;28;20184;-74
2022/03/30 06:02:08;;;;;;;6.43;1.90;;;22.70;80.90;;;;;;5060097;28;20202;-79
2022/03/30 06:04:36;;;;;;;5.20;1.40;;;22.60;80.80;;;;;;5051566;28;20180;-80
2022/03/30 06:07:04;;;;;;;6.30;1.80;;;22.60;80.60;;;;;;5052331;28;20227;-78
2022/03/30 06:09:33;;;;;;;3.90;1.50;;;22.60;80.60;;;;;;5052135;28;20180;-75
2022/03/30 06:12:03;;;;;;;6.07;1.70;;;22.70;80.20;;;;;;5049390;28;20190;-74
2022/03/30 06:14:33;;;;;;;3.63;1.57;;;22.70;80.50;;;;;;5048610;28;20268;-72
2022/03/30 06:17:03;;;;;;;5.37;1.70;;;22.80;80.50;;;;;;5045931;28;20183;-80
2022/03/30 06:19:33;;;;;;;5.60;2.10;;;22.80;80.80;;;;;;5051638;28;20561;-74
2022/03/30 06:22:05;;;;;;;6.80;2.03;;;22.80;80.40;;;;;;5051784;28;20184;-74
2022/03/30 06:24:35;;;;;;;5.60;1.77;;;23.00;79.80;;;;;;5051119;28;20191;-73
2022/03/30 06:27:02;;;;;;;8.50;2.40;;;23.00;79.20;;;;;;5050434;28;20191;-75
2022/03/30 06:29:30;;;;;;;4.80;2.20;;;23.30;78.80;;;;;;5052962;28;20555;-74
2022/03/30 06:31:57;;;;;;;5.90;2.10;;;23.70;77.30;;;;;;5053128;28;20192;-74
2022/03/30 06:34:25;;;;;;;4.53;1.87;;;24.10;75.60;;;;;;5051277;28;20199;-73
2022/03/30 06:36:53;;;;;;;3.83;1.90;;;23.70;76.10;;;;;;5052255;28;20244;-74
2022/03/30 06:39:20;;;;;;;5.07;1.40;;;24.00;74.80;;;;;;5046562;28;20711;-78
2022/03/30 06:41:48;;;;;;;3.60;1.47;;;24.50;73.10;;;;;;5032441;28;20216;-77
2022/03/30 06:44:17;;;;;;;3.00;1.50;;;24.20;74.00;;;;;;5045750;28;20534;-74
2022/03/30 06:46:44;;;;;;;6.47;1.70;;;23.50;75.80;;;;;;5052589;28;20538;-75
2022/03/30 06:49:12;;;;;;;4.03;1.80;;;23.20;77.30;;;;;;5044799;28;20172;-74
2022/03/30 06:51:39;;;;;;;6.00;1.83;;;23.30;76.90;;;;;;5031145;28;20668;-77
2022/03/30 06:54:07;;;;;;;6.13;1.50;;;23.10;78.20;;;;;;5032146;28;20683;-75
2022/03/30 06:56:35;;;;;;;4.13;1.70;;;22.80;79.30;;;;;;5046566;28;20176;-72
2022/03/30 06:59:02;;;;;;;2.87;1.70;;;22.50;80.10;;;;;;5054440;28;20172;-73
2022/03/30 07:01:30;;;;;;;4.00;1.60;;;22.20;81.10;;;;;;5053302;28;20318;-74
2022/03/30 07:03:57;;;;;;;2.40;1.40;;;22.20;81.90;;;;;;5052415;28;20187;-74
2022/03/30 07:06:24;;;;;;;3.03;1.83;;;22.00;82.10;;;;;;5051167;28;20314;-74
2022/03/30 07:11:37;;;;;;;3.00;1.83;;;21.90;82.60;;;;;;5041632;28;20227;-74
2022/03/30 07:14:04;;;;;;;4.70;1.50;;;21.80;83.30;;;;;;5052390;28;20180;-76
2022/03/30 07:16:32;;;;;;;3.00;1.93;;;21.70;83.40;;;;;;5033553;28;20185;-74
2022/03/30 07:18:59;;;;;;;3.77;1.80;;;21.70;83.80;;;;;;5048209;28;20580;-75
2022/03/30 07:21:27;;;;;;;5.47;3.00;;;21.50;84.10;;;;;;5052355;28;20219;-75
2022/03/30 07:23:54;;;;;;;5.53;2.33;;;21.50;84.60;;;;;;5053480;28;20190;-74
2022/03/30 07:26:21;;;;;;;11.63;2.90;;;21.50;84.40;;;;;;5051386;28;20187;-76
2022/03/30 07:28:49;;;;;;;6.50;2.77;;;21.40;84.80;;;;;;5055441;28;20184;-74
2022/03/30 07:31:16;;;;;;;5.80;2.83;;;21.40;85.00;;;;;;5055520;28;20211;-73
2022/03/30 07:33:43;;;;;;;6.53;3.10;;;21.30;85.00;;;;;;5055974;28;20183;-78
2022/03/30 07:36:11;;;;;;;9.33;3.70;;;21.20;85.00;;;;;;5055571;28;20585;-75
2022/03/30 07:38:38;;;;;;;5.70;3.17;;;21.20;85.30;;;;;;5055319;28;20198;-76
2022/03/30 07:41:06;;;;;;;5.20;3.33;;;21.10;85.60;;;;;;5054004;28;20176;-76
2022/03/30 07:43:33;;;;;;;6.10;3.50;;;21.00;85.90;;;;;;5055788;28;20180;-74
2022/03/30 07:46:00;;;;;;;6.70;3.00;;;21.00;86.20;;;;;;5047847;28;20265;-75
2022/03/30 07:48:28;;;;;;;4.73;2.87;;;20.90;86.10;;;;;;5045867;28;20199;-76
2022/03/30 07:50:56;;;;;;;6.90;2.93;;;21.00;86.40;;;;;;5052349;28;20329;-79
2022/03/30 07:53:23;;;;;;;5.50;3.03;;;20.90;86.50;;;;;;5049047;28;20646;-75
2022/03/30 07:55:50;;;;;;;9.57;3.40;;;20.90;86.90;;;;;;5054320;28;20263;-74
2022/03/30 07:58:18;;;;;;;7.40;2.80;;;21.00;86.70;;;;;;5054795;28;20202;-73
2022/03/30 08:00:45;;;;;;;6.53;3.10;;;21.00;86.60;;;;;;5055137;28;20266;-74
2022/03/30 08:03:13;;;;;;;6.20;3.57;;;21.00;87.80;;;;;;5053543;28;20198;-74
2022/03/30 08:05:40;;;;;;;7.80;4.40;;;20.80;88.80;;;;;;5054855;28;20253;-78
2022/03/30 08:08:08;;;;;;;10.10;4.77;;;20.80;89.50;;;;;;5053337;28;20227;-75
2022/03/30 08:10:37;;;;;;;9.63;4.13;;;20.60;90.50;;;;;;5053077;28;20299;-75
2022/03/30 08:13:06;;;;;;;9.00;4.60;;;20.40;91.00;;;;;;5050474;28;20188;-76
2022/03/30 08:15:36;;;;;;;7.00;4.67;;;20.40;91.40;;;;;;5041889;28;20674;-74
2022/03/30 08:18:05;;;;;;;5.97;4.60;;;20.30;91.30;;;;;;5048383;28;20627;-69
2022/03/30 08:23:18;;;;;;;6.80;4.63;;;20.30;91.80;;;;;;5042400;28;20187;-77
2022/03/30 08:25:47;;;;;;;8.53;4.60;;;20.30;91.50;;;;;;5035250;28;20259;-76
2022/03/30 08:28:14;;;;;;;8.00;4.53;;;20.20;91.40;;;;;;5050678;28;20662;-75
2022/03/30 08:30:42;;;;;;;8.07;4.33;;;20.20;91.10;;;;;;5058123;28;20208;-76
2022/03/30 08:33:09;;;;;;;7.70;4.17;;;20.20;91.10;;;;;;5059667;28;20259;-76
2022/03/30 08:35:37;;;;;;;7.37;4.23;;;20.20;90.90;;;;;;5054014;28;20168;-74
2022/03/30 08:38:04;;;;;;;9.87;4.07;;;20.30;90.80;;;;;;5052188;28;20179;-78
2022/03/30 08:40:33;;;;;;;5.43;3.50;;;20.20;90.50;;;;;;5052503;28;20195;-76
2022/03/30 08:43:00;;;;;;;8.50;4.43;;;20.20;90.30;;;;;;5053405;28;20172;-74
2022/03/30 08:45:28;;;;;;;4.87;3.20;;;20.30;90.50;;;;;;5046363;28;20214;-73
2022/03/30 08:47:55;;;;;;;6.60;3.97;;;20.20;90.30;;;;;;5052302;28;20230;-75
2022/03/30 08:50:23;;;;;;;6.27;3.87;;;20.30;90.40;;;;;;5053753;28;20348;-74
2022/03/30 08:52:55;;;;;;;7.17;3.97;;;20.30;90.30;;;;;;5053888;28;20267;-73
2022/03/30 08:55:22;;;;;;;6.03;3.87;;;20.30;90.40;;;;;;5053950;28;20579;-75
2022/03/30 08:57:50;;;;;;;4.47;3.50;;;20.30;90.70;;;;;;5054351;28;20191;-75
2022/03/30 09:00:20;;;;;;;9.50;3.70;;;20.30;90.70;;;;;;5053967;28;20186;-73
2022/03/30 09:03:01;;;;;;;8.00;4.43;;;20.20;90.50;;;;;;5052823;28;20626;-77
2022/03/30 09:05:35;;;;;;;5.57;3.70;;;20.20;90.70;;;;;;5053838;28;20184;-75
2022/03/30 09:08:18;;;;;;;8.30;4.73;;;20.20;90.70;;;;;;5053563;28;20562;-75
2022/03/30 09:10:49;;;;;;;7.57;3.93;;;20.10;90.70;;;;;;5033957;28;20274;-76
2022/03/30 09:13:20;;;;;;;6.87;3.53;;;20.10;90.90;;;;;;5034443;28;20165;-74
2022/03/30 09:15:51;;;;;;;4.87;3.67;;;20.00;90.70;;;;;;5037587;28;20216;-74
2022/03/30 09:18:19;;;;;;;8.23;3.83;;;20.00;91.00;;;;;;5054101;28;20679;-75
2022/03/30 09:20:51;;;;;;;10.33;3.67;;;20.00;90.90;;;;;;5052937;28;20172;-72
2022/03/30 09:23:19;;;;;;;4.27;3.20;;;20.00;90.70;;;;;;5053384;28;20180;-81
2022/03/30 09:25:48;;;;;;;7.37;2.97;;;20.00;90.70;;;;;;5050917;28;20176;-73
2022/03/30 09:28:18;;;;;;;6.13;3.17;;;20.00;90.60;;;;;;5053923;28;20179;-75
2022/03/30 09:30:46;;;;;;;7.13;3.40;;;19.90;90.70;;;;;;5053509;28;20690;-73
2022/03/30 09:33:16;;;;;;;5.30;3.10;;;20.00;90.80;;;;;;5052553;28;20172;-72
2022/03/30 09:35:44;;;;;;;6.43;3.13;;;19.90;90.50;;;;;;5053119;28;20577;-72
2022/03/30 09:38:38;;;;;;;7.27;3.33;;;20.00;90.70;;;;;;5050781;28;20195;-73
2022/03/30 09:41:09;;;;;;;8.60;3.90;;;20.00;90.70;;;;;;5053112;28;20175;-74
2022/03/30 09:43:41;;;;;;;5.83;2.97;;;20.00;90.60;;;;;;5051676;28;20183;-73
2022/03/30 09:46:13;;;;;;;10.97;3.63;;;20.00;90.70;;;;;;5052893;28;20183;-73
2022/03/30 09:48:54;;;;;;;8.33;3.63;;;20.10;90.70;;;;;;5051992;28;20188;-73
2022/03/30 09:51:25;;;;;;;9.33;3.80;;;20.10;90.80;;;;;;5052722;28;20215;-72
2022/03/30 09:53:52;;;;;;;6.80;3.80;;;20.10;90.90;;;;;;5052410;28;20208;-74
2022/03/30 09:56:26;;;;;;;9.10;4.50;;;20.20;91.10;;;;;;5052933;28;20184;-74
2022/03/30 09:59:06;;;;;;;7.63;3.57;;;20.10;91.00;;;;;;5052745;28;20223;-76
2022/03/30 10:01:34;;;;;;;6.80;3.47;;;20.10;91.20;;;;;;5052264;28;20186;-75
2022/03/30 10:04:04;;;;;;;7.97;4.33;;;20.10;91.40;;;;;;5051165;28;20200;-73
2022/03/30 10:06:40;;;;;;;8.13;4.10;;;20.10;91.40;;;;;;5052275;28;20216;-72
2022/03/30 10:09:08;;;;;;;8.00;4.23;;;20.10;91.70;;;;;;5052887;28;20168;-77
2022/03/30 10:11:35;;;;;;;6.90;4.37;;;20.20;91.90;;;;;;5052965;28;20243;-76
2022/03/30 10:14:08;;;;;;;12.10;5.00;;;20.20;92.00;;;;;;5051724;28;20188;-74
2022/03/30 10:16:35;;;;;;;13.67;5.27;;;20.20;92.00;;;;;;5052165;28;20188;-73
2022/03/30 10:19:03;;;;;;;15.33;5.57;;;20.30;92.30;;;;;;5041035;28;20242;-76
2022/03/30 10:21:39;;;;;;;13.87;5.77;;;20.30;92.20;;;;;;5039524;28;20192;-76
2022/03/30 10:24:07;;;;;;;17.07;5.37;;;20.30;92.00;;;;;;5052674;28;20172;-75
2022/03/30 10:26:59;;;;;;;14.13;6.37;;;20.30;91.90;;;;;;5052413;28;20237;-76
2022/03/30 10:29:30;;;;;;;16.83;6.23;;;20.30;91.90;;;;;;5050454;28;20625;-76
2022/03/30 10:32:27;;;;;;;16.13;6.17;;;20.30;91.90;;;;;;5050259;28;20243;-73
2022/03/30 10:35:13;;;;;;;13.70;6.57;;;20.30;91.80;;;;;;5052232;28;20198;-77
2022/03/30 10:37:56;;;;;;;14.83;6.77;;;20.30;92.10;;;;;;5052195;28;20222;-75
2022/03/30 10:40:26;;;;;;;14.10;7.00;;;20.30;92.50;;;;;;5050310;28;20189;-74
2022/03/30 10:42:54;;;;;;;14.47;7.33;;;20.20;93.10;;;;;;5051240;28;20227;-77
2022/03/30 10:45:36;;;;;;;22.37;7.67;;;20.10;93.40;;;;;;5052337;28;20190;-77
2022/03/30 10:48:11;;;;;;;16.80;8.10;;;20.00;93.40;;;;;;5052523;28;20262;-79
2022/03/30 10:50:45;;;;;;;26.37;9.30;;;20.00;93.50;;;;;;5051629;28;20750;-77
2022/03/30 10:53:31;;;;;;;16.97;9.70;;;20.00;93.50;;;;;;5050416;28;20172;-78
2022/03/30 10:56:12;;;;;;;15.03;10.50;;;20.00;93.50;;;;;;5037807;28;20265;-76
2022/03/30 10:58:52;;;;;;;19.57;11.47;;;20.00;93.60;;;;;;5053399;28;20189;-77
2022/03/30 11:01:36;;;;;;;17.23;11.30;;;19.90;93.60;;;;;;5054230;28;20187;-77
2022/03/30 11:04:18;;;;;;;23.63;12.23;;;19.90;93.50;;;;;;5053732;28;20253;-76
2022/03/30 11:07:01;;;;;;;21.30;13.03;;;19.90;93.40;;;;;;5045571;28;20284;-77
2022/03/30 11:09:33;;;;;;;17.13;11.73;;;19.90;93.30;;;;;;5054471;28;20186;-74
2022/03/30 11:12:15;;;;;;;21.87;11.73;;;19.90;93.30;;;;;;5049310;28;20257;-74
2022/03/30 11:15:03;;;;;;;18.90;11.43;;;19.80;93.20;;;;;;5043347;28;20268;-73
2022/03/30 11:17:40;;;;;;;18.07;11.47;;;19.80;93.40;;;;;;5054804;28;20275;-76
2022/03/30 11:20:09;;;;;;;16.37;11.57;;;19.80;93.30;;;;;;5055153;28;20638;-76
2022/03/30 11:22:41;;;;;;;16.50;11.43;;;19.80;93.50;;;;;;5053334;28;20638;-76
2022/03/30 11:25:19;;;;;;;17.57;10.47;;;19.80;93.20;;;;;;5040620;28;20207;-75
2022/03/30 11:28:01;;;;;;;18.60;11.00;;;19.80;93.20;;;;;;5049882;28;20207;-74
2022/03/30 11:30:31;;;;;;;11.07;9.90;;;19.80;93.30;;;;;;5053691;28;20288;-75
2022/03/30 11:33:17;;;;;;;16.30;10.93;;;19.90;93.30;;;;;;5053764;28;20191;-75
2022/03/30 11:35:46;;;;;;;14.87;11.50;;;19.90;93.30;;;;;;5065430;28;20383;-80
2022/03/30 11:38:27;;;;;;;13.83;9.97;;;20.00;93.20;;;;;;5049828;28;20746;-77
2022/03/30 11:41:06;;;;;;;18.37;10.83;;;20.00;92.90;;;;;;5054877;28;20653;-72
2022/03/30 11:46:27;;;;;;;18.10;9.80;;;20.00;92.60;;;;;;5054864;28;20618;-75
2022/03/30 11:48:59;;;;;;;14.00;8.70;;;19.90;92.40;;;;;;5046545;28;20279;-72
2022/03/30 11:51:27;;;;;;;17.87;8.43;;;19.90;92.30;;;;;;5054269;28;20643;-74
2022/03/30 11:54:16;;;;;;;10.63;8.10;;;19.80;92.30;;;;;;5047448;28;20258;-77
2022/03/30 11:56:44;;;;;;;16.13;8.57;;;19.80;92.30;;;;;;5041409;28;20256;-76
2022/03/30 11:59:11;;;;;;;13.53;8.00;;;19.70;92.00;;;;;;5061269;28;20176;-76
2022/03/30 12:01:39;;;;;;;14.63;7.70;;;19.70;91.90;;;;;;5061132;28;20187;-76
2022/03/30 12:04:07;;;;;;;17.80;7.93;;;19.70;92.00;;;;;;5061329;28;20677;-75
2022/03/30 12:06:34;;;;;;;11.33;7.20;;;19.70;91.90;;;;;;5060162;28;20712;-75
2022/03/30 12:09:02;;;;;;;14.80;7.37;;;19.70;91.90;;;;;;5057705;28;20183;-74
2022/03/30 12:11:30;;;;;;;12.00;6.30;;;19.70;91.80;;;;;;5049799;28;20334;-76
2022/03/30 12:14:02;;;;;;;19.90;7.20;;;19.70;92.00;;;;;;5054933;28;20175;-74
2022/03/30 12:16:34;;;;;;;14.53;7.03;;;19.70;91.80;;;;;;5055348;28;20183;-77
2022/03/30 12:19:02;;;;;;;12.67;6.30;;;19.70;91.90;;;;;;5051248;28;20180;-74
2022/03/30 12:21:34;;;;;;;15.67;6.70;;;19.70;91.60;;;;;;5054293;28;20180;-71
2022/03/30 12:24:06;;;;;;;10.93;6.03;;;19.70;91.70;;;;;;5054612;28;20202;-77
2022/03/30 12:26:34;;;;;;;9.80;5.37;;;19.60;91.50;;;;;;5054292;28;20184;-76
2022/03/30 12:29:15;;;;;;;8.63;5.50;;;19.50;91.90;;;;;;5053163;28;20188;-74
2022/03/30 12:31:52;;;;;;;9.57;7.10;;;19.40;92.50;;;;;;5053647;28;20263;-72
2022/03/30 12:34:23;;;;;;;9.80;7.40;;;19.30;93.60;;;;;;5052730;28;20650;-72
2022/03/30 12:36:58;;;;;;;10.07;9.17;;;19.20;94.40;;;;;;5042623;28;20189;-73
2022/03/30 12:39:34;;;;;;;11.10;10.10;;;19.20;95.10;;;;;;5050983;28;20262;-76
2022/03/30 12:42:14;;;;;;;11.33;10.27;;;19.10;95.30;;;;;;5054007;28;20207;-73
2022/03/30 12:44:54;;;;;;;13.30;10.43;;;19.00;95.40;;;;;;5052307;28;20230;-73
2022/03/30 12:47:32;;;;;;;15.33;11.43;;;19.00;95.60;;;;;;5053916;28;20179;-73
2022/03/30 12:50:05;;;;;;;14.07;10.77;;;19.00;95.50;;;;;;5052954;28;20200;-73
2022/03/30 12:52:44;;;;;;;19.30;13.40;;;18.90;95.70;;;;;;5048885;28;20191;-71
2022/03/30 12:55:36;;;;;;;39.20;17.30;;;19.10;96.30;;;;;;5052345;28;20222;-74
2022/03/30 12:58:18;;;;;;;37.67;17.63;;;19.30;96.40;;;;;;5054078;28;20537;-71
2022/03/30 13:00:56;;;;;;;27.33;17.27;;;19.30;96.30;;;;;;5052187;28;20172;-71
2022/03/30 13:03:30;;;;;;;29.03;16.53;;;19.30;96.20;;;;;;5053831;28;20192;-71
2022/03/30 13:06:09;;;;;;;24.93;15.50;;;19.20;96.20;;;;;;5052053;28;20200;-71
2022/03/30 13:08:39;;;;;;;37.57;16.47;;;19.30;96.30;;;;;;5053232;28;20176;-75